createdAt,value
2023-03-05T00:01:08.894Z,6.38
2023-03-05T00:04:13.820Z,6.53
2023-03-05T00:07:16.835Z,6.54
2023-03-05T00:10:21.716Z,6.54
2023-03-05T00:13:24.895Z,6.54
2023-03-05T00:16:29.482Z,6.48
2023-03-05T00:19:35.322Z,6.47
2023-03-05T00:22:38.326Z,6.50
2023-03-05T00:25:42.368Z,6.43
2023-03-05T00:28:53.029Z,6.40
2023-03-05T00:31:55.797Z,6.43
2023-03-05T00:34:58.581Z,6.43
2023-03-05T00:38:01.918Z,6.42
2023-03-05T00:41:06.070Z,6.43
2023-03-05T00:44:22.776Z,6.42
2023-03-05T00:47:25.510Z,6.44
2023-03-05T00:50:28.697Z,6.45
2023-03-05T00:53:34.668Z,6.48
2023-03-05T00:56:38.720Z,6.48
2023-03-05T00:59:42.352Z,6.47
2023-03-05T01:02:45.031Z,6.50
2023-03-05T01:05:47.882Z,6.48
2023-03-05T01:08:50.578Z,6.48
2023-03-05T01:11:55.593Z,6.48
2023-03-05T01:14:58.341Z,6.49
2023-03-05T01:18:03.320Z,6.47
2023-03-05T01:21:06.790Z,6.50
2023-03-05T01:24:11.401Z,6.49
2023-03-05T01:27:15.490Z,6.48
2023-03-05T01:30:18.517Z,6.47
2023-03-05T01:33:23.820Z,6.48
2023-03-05T01:36:26.633Z,6.49
2023-03-05T01:39:29.332Z,6.46
2023-03-05T01:42:33.396Z,6.46
2023-03-05T01:45:36.210Z,6.44
2023-03-05T01:48:47.241Z,6.42
2023-03-05T01:51:55.066Z,6.40
2023-03-05T01:55:03.167Z,6.34
2023-03-05T01:58:11.069Z,6.33
2023-03-05T02:01:17.105Z,6.39
2023-03-05T02:04:20.907Z,6.28
2023-03-05T02:07:24.372Z,6.33
2023-03-05T02:10:40.848Z,6.28
2023-03-05T02:13:44.983Z,6.29
2023-03-05T02:16:49.886Z,6.28
2023-03-05T02:19:57.818Z,6.28
2023-03-05T02:23:02.470Z,6.25
2023-03-05T02:26:06.693Z,6.24
2023-03-05T02:29:11.661Z,6.22
2023-03-05T02:32:15.383Z,6.22
2023-03-05T02:35:18.375Z,6.18
2023-03-05T02:38:23.684Z,6.16
2023-03-05T02:41:29.749Z,6.15
2023-03-05T02:44:39.028Z,6.15
2023-03-05T02:47:44.849Z,6.05
2023-03-05T02:50:48.439Z,6.11
2023-03-05T02:53:52.514Z,6.10
2023-03-05T02:56:55.173Z,6.11
2023-03-05T03:00:00.301Z,6.13
2023-03-05T03:03:03.755Z,6.09
2023-03-05T03:06:07.470Z,6.11
2023-03-05T03:09:11.494Z,6.10
2023-03-05T03:12:14.246Z,6.08
2023-03-05T03:15:18.624Z,6.06
2023-03-05T03:18:24.344Z,6.06
2023-03-05T03:21:27.890Z,6.19
2023-03-05T03:24:32.614Z,6.07
2023-03-05T03:27:35.285Z,6.07
2023-03-05T03:30:38.048Z,6.07
2023-03-05T03:33:43.654Z,6.07
2023-03-05T03:36:47.983Z,6.07
2023-03-05T03:39:52.024Z,6.19
2023-03-05T03:42:58.021Z,6.07
2023-03-05T03:46:01.108Z,6.05
2023-03-05T03:49:04.197Z,6.04
2023-03-05T03:52:07.629Z,6.05
2023-03-05T03:55:14.756Z,6.03
2023-03-05T03:58:19.816Z,6.04
2023-03-05T04:01:22.762Z,6.02
2023-03-05T04:04:29.083Z,6.01
2023-03-05T04:07:31.926Z,5.98
2023-03-05T04:10:38.681Z,5.97
2023-03-05T04:13:41.446Z,5.95
2023-03-05T04:16:44.169Z,5.95
2023-03-05T04:19:46.846Z,5.94
2023-03-05T04:22:50.503Z,5.96
2023-03-05T04:25:54.568Z,5.94
2023-03-05T04:28:57.285Z,5.94
2023-03-05T04:32:00.083Z,5.93
2023-03-05T04:35:05.105Z,5.93
2023-03-05T04:38:08.104Z,5.93
2023-03-05T04:41:12.121Z,5.94
2023-03-05T04:44:14.881Z,5.92
2023-03-05T04:47:18.165Z,5.90
2023-03-05T04:50:21.182Z,5.90
2023-03-05T04:53:31.083Z,5.92
2023-03-05T04:56:37.425Z,5.88
2023-03-05T04:59:40.156Z,5.85
2023-03-05T05:02:43.374Z,5.79
2023-03-05T05:05:46.150Z,5.73
2023-03-05T05:08:48.858Z,5.76
2023-03-05T05:11:53.027Z,5.70
2023-03-05T05:14:55.722Z,5.70
2023-03-05T05:17:58.404Z,5.71
2023-03-05T05:21:02.064Z,5.73
2023-03-05T05:24:06.956Z,5.76
2023-03-05T05:27:11.487Z,5.76
2023-03-05T05:30:14.565Z,5.74
2023-03-05T05:33:17.289Z,5.71
2023-03-05T05:36:22.242Z,5.69
2023-03-05T05:39:25.671Z,5.69
2023-03-05T05:42:30.021Z,5.67
2023-03-05T05:45:33.209Z,5.65
2023-03-05T05:48:37.495Z,5.67
2023-03-05T05:51:40.241Z,5.65
2023-03-05T05:54:46.746Z,5.67
2023-03-05T05:57:50.810Z,5.71
2023-03-05T06:00:53.855Z,5.65
2023-03-05T06:03:58.069Z,5.64
2023-03-05T06:07:02.176Z,5.65
2023-03-05T06:10:08.132Z,5.68
2023-03-05T06:13:12.278Z,5.65
2023-03-05T06:16:23.841Z,5.50
2023-03-05T06:19:26.927Z,5.63
2023-03-05T06:22:29.623Z,5.64
2023-03-05T06:25:32.338Z,5.65
2023-03-05T06:28:39.563Z,5.46
2023-03-05T06:31:42.274Z,5.43
2023-03-05T06:34:44.976Z,5.52
2023-03-05T06:37:47.799Z,5.43
2023-03-05T06:40:50.604Z,5.61
2023-03-05T06:43:55.612Z,5.59
2023-03-05T06:46:58.312Z,5.54
2023-03-05T06:50:01.013Z,5.54
2023-03-05T06:53:09.946Z,5.54
2023-03-05T06:56:20.487Z,5.54
2023-03-05T06:59:24.585Z,5.54
2023-03-05T07:02:27.411Z,5.48
2023-03-05T07:05:30.158Z,5.51
2023-03-05T07:08:33.631Z,5.59
2023-03-05T07:11:36.595Z,5.57
2023-03-05T07:14:43.497Z,5.61
2023-03-05T07:17:46.149Z,5.65
2023-03-05T07:20:48.889Z,5.68
2023-03-05T07:23:53.844Z,5.74
2023-03-05T07:26:57.138Z,5.79
2023-03-05T07:30:01.336Z,5.86
2023-03-05T07:33:04.156Z,5.89
2023-03-05T07:36:09.078Z,5.92
2023-03-05T07:39:12.878Z,5.95
2023-03-05T07:42:15.597Z,5.99
2023-03-05T07:45:19.884Z,6.03
2023-03-05T07:48:22.621Z,6.12
2023-03-05T07:51:27.206Z,6.21
2023-03-05T07:54:29.892Z,6.31
2023-03-05T07:57:32.595Z,6.46
2023-03-05T08:00:36.685Z,6.62
2023-03-05T08:03:41.639Z,6.76
2023-03-05T08:06:44.385Z,6.87
2023-03-05T08:09:47.046Z,6.99
2023-03-05T08:12:49.704Z,7.09
2023-03-05T08:15:53.794Z,7.24
2023-03-05T08:18:57.477Z,7.24
2023-03-05T08:22:00.164Z,7.27
2023-03-05T08:25:06.190Z,7.23
2023-03-05T08:28:08.920Z,7.21
2023-03-05T08:31:13.574Z,7.25
2023-03-05T08:34:16.997Z,7.26
2023-03-05T08:37:19.645Z,7.25
2023-03-05T08:40:25.156Z,7.27
2023-03-05T08:43:28.072Z,7.26
2023-03-05T08:46:32.184Z,7.30
2023-03-05T08:49:34.931Z,7.34
2023-03-05T08:52:37.692Z,7.39
2023-03-05T08:55:40.351Z,7.41
2023-03-05T08:58:43.569Z,7.43
2023-03-05T09:01:47.890Z,7.38
2023-03-05T09:04:50.669Z,7.52
2023-03-05T09:07:53.361Z,7.37
2023-03-05T09:10:56.604Z,7.37
2023-03-05T09:13:59.308Z,7.45
2023-03-05T09:17:03.641Z,7.46
2023-03-05T09:20:07.879Z,7.57
2023-03-05T09:23:10.608Z,7.58
2023-03-05T09:26:13.745Z,7.66
2023-03-05T09:29:16.426Z,7.75
2023-03-05T09:32:20.484Z,7.63
2023-03-05T09:35:23.328Z,7.59
2023-03-05T09:38:31.388Z,7.48
2023-03-05T09:41:46.128Z,7.38
2023-03-05T09:44:58.224Z,7.35
2023-03-05T09:48:12.580Z,7.34
2023-03-05T09:51:35.828Z,7.30
2023-03-05T09:54:48.964Z,7.17
2023-03-05T09:57:57.250Z,7.24
2023-03-05T10:01:04.836Z,7.41
2023-03-05T10:04:13.790Z,7.14
2023-03-05T10:07:22.047Z,7.27
2023-03-05T10:10:28.465Z,7.18
2023-03-05T10:13:34.204Z,7.14
2023-03-05T10:16:58.702Z,7.16
2023-03-05T10:20:29.248Z,7.18
2023-03-05T10:23:39.583Z,7.36
2023-03-05T10:26:55.824Z,7.28
2023-03-05T10:30:06.974Z,7.42
2023-03-05T10:33:19.067Z,7.61
2023-03-05T10:36:45.831Z,7.65
2023-03-05T10:40:01.925Z,7.69
2023-03-05T10:43:15.141Z,7.75
2023-03-05T10:46:19.968Z,7.71
2023-03-05T10:49:28.086Z,7.69
2023-03-05T10:52:36.325Z,7.66
2023-03-05T10:55:39.022Z,7.48
2023-03-05T10:58:41.716Z,7.55
2023-03-05T11:02:03.692Z,7.47
2023-03-05T11:05:06.503Z,7.58
2023-03-05T11:08:34.649Z,7.58
2023-03-05T11:11:37.374Z,7.82
2023-03-05T11:14:42.008Z,7.98
2023-03-05T11:17:48.277Z,8.05
2023-03-05T11:20:51.493Z,8.14
2023-03-05T11:24:14.875Z,8.34
2023-03-05T11:27:30.888Z,8.62
2023-03-05T11:30:35.669Z,8.79
2023-03-05T11:33:38.937Z,8.87
2023-03-05T11:36:43.275Z,8.99
2023-03-05T11:39:47.832Z,9.29
2023-03-05T11:42:56.679Z,9.37
2023-03-05T11:46:03.645Z,9.46
2023-03-05T11:49:08.010Z,9.58
2023-03-05T11:52:17.158Z,9.69
2023-03-05T11:55:26.832Z,9.72
2023-03-05T11:58:33.814Z,9.80
2023-03-05T12:01:43.520Z,9.87
2023-03-05T12:04:47.995Z,9.86
2023-03-05T12:07:54.165Z,9.88
2023-03-05T12:11:00.501Z,9.91
2023-03-05T12:14:07.981Z,9.85
2023-03-05T12:17:19.838Z,9.84
2023-03-05T12:20:34.445Z,9.83
2023-03-05T12:23:49.034Z,9.80
2023-03-05T12:27:07.069Z,9.77
2023-03-05T12:30:56.329Z,9.79
2023-03-05T12:33:59.524Z,9.67
2023-03-05T12:37:02.317Z,9.62
2023-03-05T12:40:21.779Z,9.63
2023-03-05T12:43:33.540Z,9.52
2023-03-05T12:46:38.098Z,9.54
2023-03-05T12:49:41.522Z,9.50
2023-03-05T12:52:47.187Z,9.51
2023-03-05T12:56:00.197Z,9.51
2023-03-05T12:59:05.582Z,9.43
2023-03-05T13:02:21.783Z,9.32
2023-03-05T13:05:28.144Z,9.24
2023-03-05T13:08:32.626Z,9.17
2023-03-05T13:11:39.213Z,9.07
2023-03-05T13:14:44.636Z,8.92
2023-03-05T13:17:55.415Z,8.92
2023-03-05T13:21:04.428Z,8.89
2023-03-05T13:24:18.391Z,8.91
2023-03-05T13:27:23.183Z,8.92
2023-03-05T13:30:29.411Z,8.92
2023-03-05T13:33:34.710Z,8.80
2023-03-05T13:36:39.232Z,8.68
2023-03-05T13:39:45.515Z,8.71
2023-03-05T13:42:48.395Z,8.66
2023-03-05T13:45:57.997Z,8.61
2023-03-05T13:49:19.488Z,8.56
2023-03-05T13:52:26.207Z,8.63
2023-03-05T13:55:29.359Z,8.54
2023-03-05T13:58:50.803Z,8.43
2023-03-05T14:01:56.031Z,8.31
2023-03-05T14:04:59.787Z,8.30
2023-03-05T14:08:03.617Z,8.50
2023-03-05T14:11:14.667Z,8.21
2023-03-05T14:14:19.146Z,8.21
2023-03-05T14:17:24.837Z,8.13
2023-03-05T14:20:29.427Z,8.07
2023-03-05T14:23:43.000Z,7.95
2023-03-05T14:26:50.643Z,7.94
2023-03-05T14:29:53.672Z,7.96
2023-03-05T14:33:00.249Z,8.02
2023-03-05T14:36:05.151Z,8.15
2023-03-05T14:39:08.535Z,8.15
2023-03-05T14:42:25.729Z,8.22
2023-03-05T14:45:30.350Z,8.30
2023-03-05T14:48:37.507Z,8.37
2023-03-05T14:51:43.388Z,8.42
2023-03-05T14:54:46.578Z,8.39
2023-03-05T14:57:51.723Z,8.32
2023-03-05T15:00:56.851Z,8.14
2023-03-05T15:04:02.185Z,8.02
2023-03-05T15:07:05.194Z,7.91
2023-03-05T15:10:09.232Z,7.80
2023-03-05T15:13:14.299Z,7.66
2023-03-05T15:16:19.028Z,7.66
2023-03-05T15:19:23.089Z,7.64
2023-03-05T15:22:25.789Z,7.54
2023-03-05T15:25:30.536Z,7.56
2023-03-05T15:28:35.148Z,7.56
2023-03-05T15:31:40.369Z,7.58
2023-03-05T15:34:44.514Z,7.58
2023-03-05T15:37:47.258Z,7.61
2023-03-05T15:40:50.870Z,7.76
2023-03-05T15:43:53.740Z,7.71
2023-03-05T15:46:57.687Z,7.76
2023-03-05T15:50:11.190Z,7.76
2023-03-05T15:53:17.929Z,7.58
2023-03-05T15:56:20.874Z,7.53
2023-03-05T15:59:26.668Z,7.54
2023-03-05T16:02:33.216Z,7.55
2023-03-05T16:05:38.667Z,7.60
2023-03-05T16:08:43.799Z,7.64
2023-03-05T16:11:49.176Z,7.63
2023-03-05T16:14:52.207Z,7.61
2023-03-05T16:17:58.192Z,7.59
2023-03-05T16:21:03.343Z,7.60
2023-03-05T16:24:06.523Z,7.57
2023-03-05T16:27:09.224Z,7.53
2023-03-05T16:30:14.914Z,7.42
2023-03-05T16:33:17.574Z,7.44
2023-03-05T16:36:26.335Z,7.40
2023-03-05T16:39:29.033Z,7.37
2023-03-05T16:42:31.809Z,7.32
2023-03-05T16:45:34.999Z,7.30
2023-03-05T16:48:37.770Z,7.26
2023-03-05T16:51:42.528Z,7.24
2023-03-05T16:54:45.521Z,7.21
2023-03-05T16:57:48.621Z,7.22
2023-03-05T17:00:51.452Z,7.17
2023-03-05T17:04:08.205Z,7.16
2023-03-05T17:07:12.324Z,7.11
2023-03-05T17:10:15.392Z,7.05
2023-03-05T17:13:18.085Z,6.98
2023-03-05T17:16:21.768Z,6.94
2023-03-05T17:19:27.056Z,6.93
2023-03-05T17:22:31.036Z,6.94
2023-03-05T17:25:33.724Z,6.90
2023-03-05T17:28:36.551Z,6.85
2023-03-05T17:31:39.454Z,6.84
2023-03-05T17:34:42.270Z,6.82
2023-03-05T17:37:46.354Z,6.80
2023-03-05T17:40:49.424Z,6.78
2023-03-05T17:43:52.444Z,6.75
2023-03-05T17:46:58.540Z,6.72
2023-03-05T17:50:02.409Z,6.73
2023-03-05T17:53:06.750Z,6.73
2023-03-05T17:56:13.271Z,6.73
2023-03-05T17:59:16.565Z,6.61
2023-03-05T18:02:19.319Z,6.75
2023-03-05T18:05:25.543Z,6.77
2023-03-05T18:08:33.445Z,6.78
2023-03-05T18:11:36.418Z,6.76
2023-03-05T18:14:41.302Z,6.76
2023-03-05T18:17:44.441Z,6.73
2023-03-05T18:20:48.643Z,6.72
2023-03-05T18:23:53.296Z,6.71
2023-03-05T18:26:56.527Z,6.70
2023-03-05T18:29:59.474Z,6.71
2023-03-05T18:33:02.238Z,6.69
2023-03-05T18:36:05.308Z,6.69
2023-03-05T18:39:12.538Z,6.67
2023-03-05T18:42:18.576Z,6.57
2023-03-05T18:45:23.114Z,6.59
2023-03-05T18:48:25.900Z,6.67
2023-03-05T18:51:30.224Z,6.49
2023-03-05T18:54:34.337Z,6.63
2023-03-05T18:57:37.072Z,6.59
2023-03-05T19:00:40.906Z,6.56
2023-03-05T19:03:46.588Z,6.54
2023-03-05T19:06:49.280Z,6.48
2023-03-05T19:09:59.076Z,6.46
2023-03-05T19:13:15.754Z,6.47
2023-03-05T19:16:20.680Z,6.42
2023-03-05T19:19:24.647Z,6.33
2023-03-05T19:22:29.454Z,6.26
2023-03-05T19:25:35.609Z,6.25
2023-03-05T19:28:39.175Z,6.24
2023-03-05T19:31:42.805Z,6.23
2023-03-05T19:34:45.901Z,6.24
2023-03-05T19:37:49.011Z,6.26
2023-03-05T19:40:53.159Z,6.26
2023-03-05T19:43:58.891Z,6.25
2023-03-05T19:47:02.436Z,6.23
2023-03-05T19:50:09.421Z,6.22
2023-03-05T19:53:12.190Z,6.23
2023-03-05T19:56:17.210Z,6.22
2023-03-05T19:59:21.164Z,6.22
2023-03-05T20:02:23.951Z,6.20
2023-03-05T20:05:26.676Z,6.22
2023-03-05T20:08:29.327Z,6.16
2023-03-05T20:11:33.775Z,6.15
2023-03-05T20:14:43.668Z,6.09
2023-03-05T20:17:47.060Z,6.05
2023-03-05T20:20:53.379Z,6.02
2023-03-05T20:23:58.552Z,6.02
2023-03-05T20:27:08.214Z,5.98
2023-03-05T20:30:26.930Z,5.95
2023-03-05T20:33:30.015Z,5.92
2023-03-05T20:36:35.573Z,5.90
2023-03-05T20:39:38.228Z,5.89
2023-03-05T20:42:42.364Z,5.86
2023-03-05T20:45:51.036Z,5.86
2023-03-05T20:52:21.445Z,5.84
2023-03-05T20:55:27.603Z,5.83
2023-03-05T20:58:35.028Z,5.83
2023-03-05T21:01:39.555Z,5.83
2023-03-05T21:04:42.320Z,5.77
2023-03-05T21:07:45.103Z,5.79
2023-03-05T21:10:48.126Z,5.80
2023-03-05T21:13:54.772Z,5.76
2023-03-05T21:16:57.477Z,5.79
2023-03-05T21:20:00.161Z,5.73
2023-03-05T21:23:03.887Z,5.70
2023-03-05T21:26:07.312Z,5.69
2023-03-05T21:29:11.949Z,5.66
2023-03-05T21:32:15.334Z,5.62
2023-03-05T21:35:20.321Z,5.63
2023-03-05T21:38:24.701Z,5.58
2023-03-05T21:41:31.071Z,5.55
2023-03-05T21:44:35.259Z,5.46
2023-03-05T21:47:41.412Z,5.51
2023-03-05T21:50:46.564Z,5.48
2023-03-05T21:53:56.455Z,5.45
2023-03-05T21:57:05.579Z,5.42
2023-03-05T22:00:11.335Z,5.43
2023-03-05T22:03:16.258Z,5.43
2023-03-05T22:06:20.496Z,5.44
2023-03-05T22:09:25.119Z,5.41
2023-03-05T22:12:43.697Z,5.37
2023-03-05T22:15:49.177Z,5.37
2023-03-05T22:18:52.332Z,5.36
2023-03-05T22:21:55.033Z,5.35
2023-03-05T22:25:02.304Z,5.37
2023-03-05T22:28:05.903Z,5.38
2023-03-05T22:31:10.530Z,5.33
2023-03-05T22:34:14.222Z,5.33
2023-03-05T22:37:20.544Z,5.30
2023-03-05T22:40:37.882Z,5.23
2023-03-05T22:43:41.643Z,5.25
2023-03-05T22:46:45.697Z,5.22
2023-03-05T22:49:50.582Z,5.23
2023-03-05T22:52:53.572Z,5.24
2023-03-05T22:55:56.345Z,5.25
2023-03-05T22:59:06.474Z,5.25
2023-03-05T23:02:10.633Z,5.25
2023-03-05T23:05:15.442Z,5.26
2023-03-05T23:08:21.317Z,5.27
2023-03-05T23:11:24.062Z,5.27
2023-03-05T23:14:32.897Z,5.22
2023-03-05T23:17:36.999Z,5.19
2023-03-05T23:20:43.400Z,5.09
2023-03-05T23:23:46.203Z,5.18
2023-03-05T23:26:48.874Z,5.17
2023-03-05T23:30:05.688Z,5.17
2023-03-05T23:33:15.572Z,5.13
2023-03-05T23:36:19.909Z,5.14
2023-03-05T23:39:22.598Z,5.15
2023-03-05T23:42:27.558Z,5.14
2023-03-05T23:45:31.277Z,5.13
2023-03-05T23:48:35.546Z,5.08
2023-03-05T23:51:39.261Z,5.10
2023-03-05T23:54:41.942Z,5.05
2023-03-05T23:57:45.410Z,5.05
